createdAt,value
2019-03-22T00:00:20.393Z,99.90
2019-03-22T00:02:48.781Z,99.90
2019-03-22T00:05:17.194Z,99.90
2019-03-22T00:08:04.931Z,99.90
2019-03-22T00:10:33.358Z,99.90
2019-03-22T00:13:01.755Z,99.90
2019-03-22T00:15:30.150Z,99.90
2019-03-22T00:17:58.704Z,99.90
2019-03-22T00:20:27.206Z,99.90
2019-03-22T00:22:55.634Z,99.90
2019-03-22T00:25:24.687Z,99.90
2019-03-22T00:27:53.106Z,99.90
2019-03-22T00:30:21.627Z,99.90
2019-03-22T00:32:50.142Z,99.90
2019-03-22T00:35:18.659Z,99.90
2019-03-22T00:37:47.062Z,99.90
2019-03-22T00:40:15.510Z,99.90
2019-03-22T00:42:43.966Z,99.90
2019-03-22T00:45:12.636Z,99.90
2019-03-22T00:47:41.035Z,99.90
2019-03-22T00:50:11.863Z,99.90
2019-03-22T00:52:40.434Z,99.90
2019-03-22T00:55:09.281Z,99.90
2019-03-22T00:57:37.694Z,99.90
2019-03-22T01:00:11.699Z,99.90
2019-03-22T01:02:40.940Z,99.90
2019-03-22T01:05:11.059Z,99.90
2019-03-22T01:07:39.455Z,99.90
2019-03-22T01:10:12.770Z,99.90
2019-03-22T01:12:41.286Z,99.90
2019-03-22T01:15:11.507Z,99.90
2019-03-22T01:17:39.982Z,99.90
2019-03-22T01:20:09.914Z,99.90
2019-03-22T01:22:38.326Z,99.90
2019-03-22T01:25:08.686Z,99.90
2019-03-22T01:27:40.812Z,99.90
2019-03-22T01:30:12.967Z,99.90
2019-03-22T01:32:41.363Z,99.90
2019-03-22T01:35:10.046Z,99.90
2019-03-22T01:37:38.450Z,99.90
2019-03-22T01:40:08.796Z,99.90
2019-03-22T01:42:37.276Z,99.90
2019-03-22T01:45:08.843Z,99.90
2019-03-22T01:47:37.570Z,99.90
2019-03-22T01:50:08.786Z,99.90
2019-03-22T01:52:37.741Z,99.90
2019-03-22T01:55:06.967Z,99.90
2019-03-22T01:57:35.383Z,99.90
2019-03-22T02:00:06.293Z,99.90
2019-03-22T02:02:34.762Z,99.90
2019-03-22T02:05:03.398Z,99.90
2019-03-22T02:07:31.875Z,99.90
2019-03-22T02:10:19.624Z,99.90
2019-03-22T02:12:48.036Z,99.90
2019-03-22T02:15:16.800Z,99.90
2019-03-22T02:17:45.277Z,99.90
2019-03-22T02:20:15.318Z,99.90
2019-03-22T02:22:44.287Z,99.90
2019-03-22T02:25:13.016Z,99.90
2019-03-22T02:27:42.283Z,99.90
2019-03-22T02:30:13.850Z,99.90
2019-03-22T02:32:42.369Z,99.90
2019-03-22T02:35:26.892Z,99.90
2019-03-22T02:37:41.079Z,99.90
2019-03-22T02:40:11.415Z,99.90
2019-03-22T02:42:39.806Z,99.90
2019-03-22T02:45:11.341Z,99.90
2019-03-22T02:47:39.731Z,99.90
2019-03-22T02:50:18.183Z,99.90
2019-03-22T02:52:40.778Z,99.90
2019-03-22T02:55:10.502Z,99.90
2019-03-22T02:57:38.935Z,99.90
2019-03-22T03:00:15.183Z,99.90
2019-03-22T03:02:43.756Z,99.90
2019-03-22T03:05:13.013Z,99.90
2019-03-22T03:07:49.338Z,99.90
2019-03-22T03:10:17.811Z,99.90
2019-03-22T03:12:46.616Z,99.90
2019-03-22T03:15:18.922Z,99.90
2019-03-22T03:17:47.559Z,99.90
2019-03-22T03:20:37.023Z,99.90
2019-03-22T03:23:05.410Z,99.90
2019-03-22T03:25:33.819Z,99.90
2019-03-22T03:28:02.234Z,99.90
2019-03-22T03:30:30.656Z,99.90
2019-03-22T03:32:59.333Z,99.90
2019-03-22T03:35:27.761Z,99.90
2019-03-22T03:37:56.244Z,99.90
2019-03-22T03:40:24.729Z,99.90
2019-03-22T03:42:53.181Z,99.90
2019-03-22T03:45:33.021Z,99.90
2019-03-22T03:48:02.843Z,99.90
2019-03-22T03:50:31.238Z,99.90
2019-03-22T03:52:59.680Z,99.90
2019-03-22T03:55:28.820Z,99.90
2019-03-22T03:57:57.988Z,99.90
2019-03-22T04:00:26.399Z,99.90
2019-03-22T04:02:54.809Z,99.90
2019-03-22T04:05:23.211Z,99.90
2019-03-22T04:07:52.540Z,99.90
2019-03-22T04:10:20.979Z,99.90
2019-03-22T04:12:49.959Z,99.90
2019-03-22T04:15:18.396Z,99.90
2019-03-22T04:17:46.906Z,99.90
2019-03-22T04:20:15.327Z,99.90
2019-03-22T04:22:43.784Z,99.90
2019-03-22T04:25:12.331Z,99.90
2019-03-22T04:27:40.802Z,99.90
2019-03-22T04:30:09.594Z,99.90
2019-03-22T04:32:38.024Z,99.90
2019-03-22T04:35:07.342Z,99.90
2019-03-22T04:37:35.757Z,99.90
2019-03-22T04:40:18.878Z,99.90
2019-03-22T04:42:47.394Z,99.90
2019-03-22T04:45:15.950Z,99.90
2019-03-22T04:47:46.091Z,99.90
2019-03-22T04:50:15.039Z,99.90
2019-03-22T04:52:43.726Z,99.90
2019-03-22T04:55:12.583Z,99.90
2019-03-22T04:57:42.324Z,99.90
2019-03-22T05:00:12.263Z,99.90
2019-03-22T05:02:41.966Z,99.90
2019-03-22T05:05:12.962Z,99.90
2019-03-22T05:07:42.592Z,99.90
2019-03-22T05:10:13.492Z,99.90
2019-03-22T05:12:43.131Z,99.90
2019-03-22T05:15:14.683Z,99.90
2019-03-22T05:17:43.934Z,99.90
2019-03-22T05:20:12.987Z,99.90
2019-03-22T05:22:42.634Z,99.90
2019-03-22T05:25:11.524Z,99.90
2019-03-22T05:27:42.418Z,99.90
2019-03-22T05:30:16.538Z,99.90
2019-03-22T05:32:44.956Z,99.90
2019-03-22T05:35:13.361Z,99.90
2019-03-22T05:37:41.774Z,99.90
2019-03-22T05:40:10.331Z,99.90
2019-03-22T05:42:38.895Z,99.90
2019-03-22T05:45:07.522Z,99.90
2019-03-22T05:47:35.961Z,99.90
2019-03-22T05:50:05.893Z,99.90
2019-03-22T05:52:34.292Z,99.90
2019-03-22T05:55:02.765Z,99.90
2019-03-22T05:57:31.154Z,99.90
2019-03-22T05:59:59.847Z,99.90
2019-03-22T06:02:28.270Z,99.90
2019-03-22T06:04:56.662Z,99.90
2019-03-22T06:07:25.082Z,99.90
2019-03-22T06:09:53.506Z,99.90
2019-03-22T06:12:21.906Z,99.90
2019-03-22T06:14:50.312Z,99.90
2019-03-22T06:17:18.716Z,99.90
2019-03-22T06:19:47.119Z,99.90
2019-03-22T06:22:15.554Z,99.90
2019-03-22T06:24:44.057Z,99.90
2019-03-22T06:27:12.454Z,99.90
2019-03-22T06:29:40.866Z,99.90
2019-03-22T06:32:09.263Z,99.90
2019-03-22T06:34:37.690Z,99.90
2019-03-22T06:37:06.095Z,99.90
2019-03-22T06:39:34.494Z,99.90
2019-03-22T06:42:03.240Z,99.90
2019-03-22T06:44:32.059Z,99.90
2019-03-22T06:47:00.458Z,99.90
2019-03-22T06:49:29.332Z,99.90
2019-03-22T06:51:57.718Z,99.90
2019-03-22T06:54:31.396Z,99.90
2019-03-22T06:56:56.245Z,99.90
2019-03-22T06:59:24.707Z,99.90
2019-03-22T07:01:53.107Z,99.90
2019-03-22T07:04:21.536Z,99.90
2019-03-22T07:06:49.973Z,99.90
2019-03-22T07:09:18.370Z,99.90
2019-03-22T07:11:46.914Z,99.90
2019-03-22T07:14:15.309Z,99.90
2019-03-22T07:16:43.727Z,99.90
2019-03-22T07:19:12.123Z,99.90
2019-03-22T07:21:40.516Z,99.90
2019-03-22T07:24:09.067Z,99.90
2019-03-22T07:26:56.948Z,99.90
2019-03-22T07:29:25.361Z,99.90
2019-03-22T07:31:53.753Z,99.90
2019-03-22T07:34:22.173Z,99.90
2019-03-22T07:36:50.946Z,99.90
2019-03-22T07:39:19.359Z,99.90
2019-03-22T07:41:47.751Z,99.90
2019-03-22T07:44:16.462Z,99.90
2019-03-22T07:46:44.851Z,99.90
2019-03-22T07:49:13.238Z,99.90
2019-03-22T07:51:41.656Z,99.90
2019-03-22T07:54:10.043Z,99.90
2019-03-22T07:56:38.447Z,99.90
2019-03-22T07:59:09.656Z,99.90
2019-03-22T08:01:37.055Z,99.90
2019-03-22T08:04:05.450Z,99.90
2019-03-22T08:06:34.153Z,99.60
2019-03-22T08:09:04.417Z,99.10
2019-03-22T08:11:32.811Z,98.60
2019-03-22T08:14:01.315Z,98.10
2019-03-22T08:16:29.756Z,97.70
2019-03-22T08:18:58.195Z,97.30
2019-03-22T08:21:26.612Z,96.70
2019-03-22T08:23:55.030Z,96.20
2019-03-22T08:26:23.399Z,95.80
2019-03-22T08:28:51.969Z,95.40
2019-03-22T08:31:20.353Z,94.90
2019-03-22T08:33:48.746Z,94.90
2019-03-22T08:36:17.242Z,94.60
2019-03-22T08:38:45.653Z,94.30
2019-03-22T08:41:14.066Z,94.30
2019-03-22T08:43:42.468Z,93.80
2019-03-22T08:46:10.880Z,93.60
2019-03-22T08:48:39.260Z,92.80
2019-03-22T08:51:07.664Z,92.80
2019-03-22T08:53:36.065Z,92.60
2019-03-22T08:56:04.534Z,92.30
2019-03-22T08:58:32.935Z,92.10
2019-03-22T09:01:01.424Z,92.00
2019-03-22T09:03:29.892Z,91.50
2019-03-22T09:05:58.290Z,91.00
2019-03-22T09:08:26.736Z,90.80
2019-03-22T09:10:55.304Z,90.50
2019-03-22T09:13:23.731Z,90.10
2019-03-22T09:15:52.134Z,89.50
2019-03-22T09:18:20.561Z,88.90
2019-03-22T09:20:49.000Z,87.60
2019-03-22T09:23:17.456Z,86.60
2019-03-22T09:25:45.976Z,85.70
2019-03-22T09:28:14.423Z,85.70
2019-03-22T09:30:43.107Z,85.20
2019-03-22T09:33:13.423Z,84.70
2019-03-22T09:35:41.673Z,84.60
2019-03-22T09:38:13.051Z,84.60
2019-03-22T09:40:40.240Z,83.60
2019-03-22T09:43:08.705Z,83.00
2019-03-22T09:45:37.297Z,82.70
2019-03-22T09:48:06.282Z,82.80
2019-03-22T09:50:34.891Z,82.70
2019-03-22T09:53:03.349Z,82.10
2019-03-22T09:55:31.841Z,81.90
2019-03-22T09:58:00.279Z,81.30
2019-03-22T10:00:32.944Z,81.00
2019-03-22T10:03:01.946Z,81.10
2019-03-22T10:05:30.351Z,80.90
2019-03-22T10:07:58.763Z,80.10
2019-03-22T10:10:27.197Z,80.00
2019-03-22T10:12:55.589Z,80.00
2019-03-22T10:15:24.001Z,79.50
2019-03-22T10:17:52.787Z,79.60
2019-03-22T10:20:21.206Z,78.60
2019-03-22T10:22:49.825Z,78.40
2019-03-22T10:25:18.312Z,77.50
2019-03-22T10:27:46.759Z,77.00
2019-03-22T10:30:17.537Z,76.60
2019-03-22T10:32:45.997Z,76.80
2019-03-22T10:35:25.348Z,75.30
2019-03-22T10:37:45.115Z,75.40
2019-03-22T10:40:13.770Z,74.70
2019-03-22T10:43:01.589Z,73.80
2019-03-22T10:45:30.194Z,73.10
2019-03-22T10:47:58.769Z,71.60
2019-03-22T10:50:27.317Z,70.90
2019-03-22T10:52:55.845Z,69.60
2019-03-22T10:55:30.177Z,69.20
2019-03-22T10:57:55.543Z,69.50
2019-03-22T11:00:24.246Z,69.30
2019-03-22T11:02:52.738Z,68.10
2019-03-22T11:05:21.140Z,67.90
2019-03-22T11:07:49.535Z,68.50
2019-03-22T11:10:17.973Z,67.80
2019-03-22T11:12:46.362Z,66.80
2019-03-22T11:15:15.502Z,65.90
2019-03-22T11:17:43.919Z,65.30
2019-03-22T11:20:15.793Z,65.30
2019-03-22T11:22:44.305Z,64.50
2019-03-22T11:25:13.143Z,65.30
2019-03-22T11:27:41.542Z,64.40
2019-03-22T11:30:13.066Z,64.10
2019-03-22T11:32:41.557Z,62.60
2019-03-22T11:35:10.926Z,60.90
2019-03-22T11:37:39.327Z,60.70
2019-03-22T11:40:16.854Z,59.80
2019-03-22T11:42:45.425Z,59.30
2019-03-22T11:45:19.882Z,58.90
2019-03-22T11:47:48.547Z,59.50
2019-03-22T11:50:18.933Z,58.50
2019-03-22T11:52:47.352Z,57.80
2019-03-22T11:55:16.101Z,56.60
2019-03-22T11:57:44.508Z,55.90
2019-03-22T12:00:26.307Z,55.80
2019-03-22T12:02:54.828Z,55.60
2019-03-22T12:05:23.546Z,54.90
2019-03-22T12:07:51.942Z,54.60
2019-03-22T12:10:21.861Z,54.30
2019-03-22T12:12:50.268Z,53.90
2019-03-22T12:15:22.974Z,52.50
2019-03-22T12:17:51.390Z,51.80
2019-03-22T12:20:23.886Z,51.60
2019-03-22T12:22:52.738Z,50.80
2019-03-22T12:25:23.474Z,50.20
2019-03-22T12:27:51.884Z,50.20
2019-03-22T12:30:20.347Z,49.50
2019-03-22T12:32:48.759Z,48.90
2019-03-22T12:35:17.794Z,49.00
2019-03-22T12:37:46.645Z,49.00
2019-03-22T12:40:22.255Z,48.30
2019-03-22T12:42:50.761Z,47.90
2019-03-22T12:45:32.578Z,47.90
2019-03-22T12:48:01.329Z,47.60
2019-03-22T12:50:29.899Z,47.80
2019-03-22T12:52:58.443Z,47.50
2019-03-22T12:55:26.831Z,47.20
2019-03-22T12:57:55.218Z,47.70
2019-03-22T13:00:26.848Z,47.50
2019-03-22T13:02:56.972Z,47.50
2019-03-22T13:05:25.663Z,47.50
2019-03-22T13:07:54.159Z,47.60
2019-03-22T13:10:25.160Z,46.90
2019-03-22T13:12:53.577Z,46.50
2019-03-22T13:15:22.054Z,45.40
2019-03-22T13:17:50.522Z,44.80
2019-03-22T13:20:20.438Z,44.70
2019-03-22T13:22:48.830Z,43.80
2019-03-22T13:25:17.976Z,44.10
2019-03-22T13:27:46.717Z,44.20
2019-03-22T13:30:21.115Z,43.80
2019-03-22T13:32:52.204Z,43.60
2019-03-22T13:35:19.733Z,43.70
2019-03-22T13:37:48.227Z,43.50
2019-03-22T13:40:16.751Z,43.30
2019-03-22T13:42:45.203Z,43.10
2019-03-22T13:45:14.022Z,43.20
2019-03-22T13:47:42.826Z,43.00
2019-03-22T13:50:11.610Z,43.20
2019-03-22T13:52:40.198Z,43.60
2019-03-22T13:55:09.427Z,43.50
2019-03-22T13:57:38.041Z,43.50
2019-03-22T14:00:19.259Z,43.60
2019-03-22T14:02:47.679Z,43.40
2019-03-22T14:05:16.330Z,43.30
2019-03-22T14:07:44.730Z,43.60
2019-03-22T14:10:35.751Z,43.60
2019-03-22T14:13:26.076Z,43.90
2019-03-22T14:15:54.553Z,43.60
2019-03-22T14:18:22.959Z,42.70
2019-03-22T14:20:51.999Z,42.40
2019-03-22T14:23:20.382Z,42.10
2019-03-22T14:25:48.889Z,41.70
2019-03-22T14:28:17.282Z,41.40
2019-03-22T14:30:45.687Z,41.20
2019-03-22T14:33:14.401Z,41.00
2019-03-22T14:35:42.863Z,41.00
2019-03-22T14:38:11.332Z,41.10
2019-03-22T14:40:39.815Z,40.80
2019-03-22T14:43:08.221Z,40.90
2019-03-22T14:45:36.853Z,40.70
2019-03-22T14:48:05.256Z,40.80
2019-03-22T14:50:34.013Z,41.00
2019-03-22T14:53:02.487Z,41.00
2019-03-22T14:55:31.002Z,40.80
2019-03-22T14:57:59.428Z,40.50
2019-03-22T15:00:27.906Z,39.90
2019-03-22T15:02:56.847Z,39.70
2019-03-22T15:05:26.763Z,39.80
2019-03-22T15:07:56.407Z,39.80
2019-03-22T15:10:24.903Z,39.80
2019-03-22T15:12:56.147Z,39.70
2019-03-22T15:15:32.428Z,39.30
2019-03-22T15:18:08.531Z,39.20
2019-03-22T15:20:55.119Z,39.10
2019-03-22T15:23:30.963Z,39.00
2019-03-22T15:26:03.750Z,38.80
2019-03-22T15:28:39.754Z,38.90
2019-03-22T15:31:24.821Z,38.90
2019-03-22T15:33:57.311Z,39.20
2019-03-22T15:36:43.698Z,39.10
2019-03-22T15:39:30.950Z,39.20
2019-03-22T15:41:59.537Z,39.30
2019-03-22T15:44:28.000Z,40.10
2019-03-22T15:46:56.394Z,39.50
2019-03-22T15:49:24.799Z,39.80
2019-03-22T15:51:53.210Z,41.20
2019-03-22T15:54:21.605Z,40.90
2019-03-22T15:56:57.318Z,41.10
2019-03-22T15:59:25.853Z,41.00
2019-03-22T16:01:54.245Z,41.10
2019-03-22T16:04:22.723Z,40.80
2019-03-22T16:06:51.204Z,40.60
2019-03-22T16:09:19.679Z,40.90
2019-03-22T16:11:48.155Z,41.20
2019-03-22T16:14:16.586Z,41.60
2019-03-22T16:16:44.978Z,41.70
2019-03-22T16:19:13.381Z,42.00
2019-03-22T16:21:41.787Z,42.10
2019-03-22T16:24:10.187Z,42.40
2019-03-22T16:26:38.598Z,42.70
2019-03-22T16:29:07.044Z,43.00
2019-03-22T16:31:35.623Z,43.30
2019-03-22T16:34:04.043Z,43.60
2019-03-22T16:36:32.655Z,43.80
2019-03-22T16:39:01.050Z,44.40
2019-03-22T16:41:29.470Z,44.50
2019-03-22T16:44:06.750Z,44.80
2019-03-22T16:46:35.422Z,45.30
2019-03-22T16:49:03.858Z,45.70
2019-03-22T16:51:32.510Z,46.20
2019-03-22T16:54:00.974Z,46.80
2019-03-22T16:56:29.387Z,47.50
2019-03-22T16:58:57.918Z,48.10
2019-03-22T17:01:26.311Z,48.70
2019-03-22T17:04:03.898Z,49.20
2019-03-22T17:06:25.030Z,49.60
2019-03-22T17:08:53.460Z,50.10
2019-03-22T17:11:21.850Z,50.50
2019-03-22T17:13:50.270Z,51.20
2019-03-22T17:16:18.862Z,52.00
2019-03-22T17:18:47.265Z,52.40
2019-03-22T17:21:15.905Z,52.90
2019-03-22T17:23:44.318Z,53.60
2019-03-22T17:26:12.724Z,54.60
2019-03-22T17:28:41.223Z,55.10
2019-03-22T17:31:09.711Z,55.70
2019-03-22T17:33:39.141Z,56.40
2019-03-22T17:36:07.844Z,57.20
2019-03-22T17:38:36.247Z,57.80
2019-03-22T17:41:04.710Z,58.10
2019-03-22T17:43:33.119Z,58.60
2019-03-22T17:46:01.557Z,59.20
2019-03-22T17:48:30.061Z,59.70
2019-03-22T17:50:58.493Z,60.60
2019-03-22T17:53:26.985Z,61.30
2019-03-22T17:55:55.447Z,61.70
2019-03-22T17:58:23.834Z,62.30
2019-03-22T18:00:52.505Z,62.70
2019-03-22T18:03:20.924Z,63.60
2019-03-22T18:05:49.330Z,64.20
2019-03-22T18:08:17.718Z,65.10
2019-03-22T18:10:46.192Z,66.00
2019-03-22T18:13:14.606Z,66.40
2019-03-22T18:16:12.902Z,67.00
2019-03-22T18:18:41.391Z,67.60
2019-03-22T18:21:09.803Z,68.40
2019-03-22T18:23:38.195Z,69.00
2019-03-22T18:26:06.722Z,70.10
2019-03-22T18:28:35.470Z,71.20
2019-03-22T18:31:03.909Z,72.20
2019-03-22T18:33:32.339Z,73.00
2019-03-22T18:36:00.733Z,73.50
2019-03-22T18:38:29.134Z,74.10
2019-03-22T18:40:57.555Z,74.90
2019-03-22T18:43:25.947Z,75.80
2019-03-22T18:45:54.336Z,76.90
2019-03-22T18:48:22.747Z,78.00
2019-03-22T18:50:56.769Z,79.20
2019-03-22T18:53:21.297Z,80.60
2019-03-22T18:55:49.695Z,81.60
2019-03-22T18:58:18.150Z,82.60
2019-03-22T19:00:46.539Z,83.70
2019-03-22T19:03:14.931Z,84.90
2019-03-22T19:05:44.015Z,86.00
2019-03-22T19:08:12.562Z,87.30
2019-03-22T19:10:40.982Z,88.70
2019-03-22T19:13:09.639Z,89.70
2019-03-22T19:15:38.250Z,90.20
2019-03-22T19:18:06.703Z,90.50
2019-03-22T19:20:35.193Z,90.90
2019-03-22T19:23:03.601Z,91.30
2019-03-22T19:25:31.994Z,91.70
2019-03-22T19:28:00.917Z,92.10
2019-03-22T19:30:29.452Z,92.40
2019-03-22T19:32:58.014Z,92.70
2019-03-22T19:35:26.456Z,92.90
2019-03-22T19:37:54.896Z,93.10
2019-03-22T19:40:23.318Z,93.40
2019-03-22T19:42:51.781Z,93.70
2019-03-22T19:45:20.505Z,94.00
2019-03-22T19:47:49.150Z,94.20
2019-03-22T19:50:17.805Z,94.40
2019-03-22T19:52:46.278Z,94.70
2019-03-22T19:55:14.765Z,95.00
2019-03-22T19:57:43.173Z,95.10
2019-03-22T20:00:17.314Z,95.30
2019-03-22T20:02:45.761Z,95.40
2019-03-22T20:05:28.701Z,95.60
2019-03-22T20:07:57.719Z,95.70
2019-03-22T20:10:26.277Z,96.00
2019-03-22T20:12:54.739Z,96.30
2019-03-22T20:15:24.401Z,96.40
2019-03-22T20:17:52.862Z,96.60
2019-03-22T20:20:21.361Z,96.80
2019-03-22T20:22:49.769Z,97.00
2019-03-22T20:25:18.225Z,97.10
2019-03-22T20:27:46.612Z,97.20
2019-03-22T20:30:16.850Z,97.20
2019-03-22T20:32:45.749Z,97.40
2019-03-22T20:35:16.753Z,97.60
2019-03-22T20:37:44.600Z,97.70
2019-03-22T20:40:17.987Z,97.80
2019-03-22T20:42:46.687Z,98.00
2019-03-22T20:45:23.601Z,98.10
2019-03-22T20:47:45.307Z,98.20
2019-03-22T20:50:14.168Z,98.40
2019-03-22T20:52:42.611Z,98.40
2019-03-22T20:55:11.626Z,98.60
2019-03-22T20:57:40.134Z,98.70
2019-03-22T21:00:11.264Z,98.70
2019-03-22T21:02:39.767Z,98.80
2019-03-22T21:05:08.314Z,98.80
2019-03-22T21:07:36.742Z,98.80
2019-03-22T21:10:07.277Z,98.90
2019-03-22T21:12:35.746Z,99.10
2019-03-22T21:15:07.089Z,99.20
2019-03-22T21:17:35.626Z,99.20
2019-03-22T21:20:06.902Z,99.40
2019-03-22T21:22:35.525Z,99.50
2019-03-22T21:25:09.457Z,99.80
2019-03-22T21:27:37.859Z,99.90
2019-03-22T21:30:08.669Z,99.90
2019-03-22T21:32:44.655Z,99.90
2019-03-22T21:35:07.639Z,99.90
2019-03-22T21:37:36.311Z,99.90
2019-03-22T21:40:06.726Z,99.90
2019-03-22T21:42:35.153Z,99.90
2019-03-22T21:45:04.681Z,99.90
2019-03-22T21:47:33.178Z,99.90
2019-03-22T21:50:01.592Z,99.90
2019-03-22T21:52:29.987Z,99.90
2019-03-22T21:54:58.405Z,99.90
2019-03-22T21:57:26.866Z,99.90
2019-03-22T21:59:55.345Z,99.90
2019-03-22T22:02:23.819Z,99.90
2019-03-22T22:04:52.434Z,99.90
2019-03-22T22:07:20.867Z,99.90
2019-03-22T22:09:49.653Z,99.90
2019-03-22T22:12:18.142Z,99.90
2019-03-22T22:14:46.896Z,99.90
2019-03-22T22:17:15.406Z,99.90
2019-03-22T22:19:43.829Z,99.90
2019-03-22T22:22:12.232Z,99.90
2019-03-22T22:24:40.828Z,99.90
2019-03-22T22:27:13.660Z,99.90
2019-03-22T22:29:39.437Z,99.90
2019-03-22T22:32:08.151Z,99.90
2019-03-22T22:34:36.594Z,99.90
2019-03-22T22:37:05.135Z,99.90
2019-03-22T22:39:33.606Z,99.90
2019-03-22T22:42:02.007Z,99.90
2019-03-22T22:44:30.430Z,99.90
2019-03-22T22:46:58.879Z,99.90
2019-03-22T22:49:27.302Z,99.90
2019-03-22T22:51:55.991Z,99.90
2019-03-22T22:54:24.387Z,99.90
2019-03-22T22:56:52.784Z,99.90
2019-03-22T22:59:21.202Z,99.90
2019-03-22T23:01:49.614Z,99.90
2019-03-22T23:04:18.027Z,99.90
2019-03-22T23:06:46.418Z,99.90
2019-03-22T23:09:14.830Z,99.90
2019-03-22T23:11:43.222Z,99.90
2019-03-22T23:14:11.659Z,99.90
2019-03-22T23:16:40.058Z,99.90
2019-03-22T23:19:08.504Z,99.90
2019-03-22T23:21:36.882Z,99.90
2019-03-22T23:24:05.938Z,99.90
2019-03-22T23:26:36.353Z,99.90
2019-03-22T23:29:04.819Z,99.90
2019-03-22T23:31:33.541Z,99.90
2019-03-22T23:34:02.198Z,99.90
2019-03-22T23:36:31.300Z,99.90
2019-03-22T23:38:59.716Z,99.90
2019-03-22T23:41:28.175Z,99.90
2019-03-22T23:43:56.724Z,99.90
2019-03-22T23:46:25.170Z,99.90
2019-03-22T23:48:53.566Z,99.90
2019-03-22T23:51:21.970Z,99.90
2019-03-22T23:53:50.362Z,99.90
2019-03-22T23:56:19.014Z,99.90
2019-03-22T23:58:47.414Z,99.90
